Skanee, Michigan
Current Conditions -  °F | °C
As of 5:35 PM on Sunday 21 Dec 2014 (Local Time) from KCMX Reporting Station
Light Snow Light Snow  
Wind Chill: -4°   Ceiling: 300
Heat Index:   Visibility: 0.75mi
Dew Point: -1°   Wind: 7mph
Humidity: 92%   Direction: 150°SSE
Pressure: 29.89"   Gusts: NA
Location:  46.87°N, 88.21°W
Report Text: KCMX 212235Z AUTO 15006KT 3/4SM -SN BR BKN003 OVC009 00/M01 A2989 RMK AO2 P0001 T00001011
Loading
Personal Weather Stations






























Interactive Weather Map New forecast layout! Learn more

10-Day Weather Forecast

Advertisements
Track Severe Weather on mobile